Time;durP1;ratioP1;P1;durP2;ratioP2;P2;SDS_P1;SDS_P2;PMS_P1;PMS_P2;Temp;Humidity;BMP_temperature;BMP_pressure;BME280_temperature;BME280_humidity;BME280_pressure;Samples;Min_cycle;Max_cycle;Signal;HPM_P1;HPM_P2
2022/10/23 00:01:30;;;;;;;2.93;2.67;;;14.00;99.90;;;;;;5034090;28;20461;-71
2022/10/23 00:04:01;;;;;;;5.70;2.90;;;14.00;99.90;;;;;;5053867;28;21057;-72
2022/10/23 00:06:30;;;;;;;6.23;3.03;;;14.00;99.90;;;;;;5050539;28;20464;-72
2022/10/23 00:08:56;;;;;;;4.90;3.27;;;14.00;99.90;;;;;;5049974;28;20497;-73
2022/10/23 00:11:24;;;;;;;3.53;3.23;;;14.00;99.90;;;;;;5053803;28;20501;-73
2022/10/23 00:13:52;;;;;;;2.20;2.00;;;14.00;99.90;;;;;;5054230;28;20215;-73
2022/10/23 00:16:17;;;;;;;4.00;2.60;;;14.00;99.90;;;;;;5058523;28;20473;-73
2022/10/23 00:18:44;;;;;;;3.50;2.77;;;14.00;99.90;;;;;;5044042;28;20526;-72
2022/10/23 00:21:11;;;;;;;3.43;2.50;;;13.90;99.90;;;;;;5055030;28;20212;-72
2022/10/23 00:23:37;;;;;;;3.70;2.47;;;13.90;99.90;;;;;;5070504;28;20454;-72
2022/10/23 00:26:03;;;;;;;6.23;2.10;;;13.90;99.90;;;;;;5061607;28;20511;-72
2022/10/23 00:28:29;;;;;;;3.87;2.60;;;13.90;99.90;;;;;;5061801;28;20218;-73
2022/10/23 00:30:55;;;;;;;6.00;2.80;;;13.90;99.90;;;;;;5057303;28;20469;-72
2022/10/23 00:33:20;;;;;;;6.13;2.03;;;13.80;99.90;;;;;;5057523;28;20211;-71
2022/10/23 00:35:46;;;;;;;1.90;1.77;;;13.80;99.90;;;;;;5055033;28;20222;-73
2022/10/23 00:38:12;;;;;;;3.80;2.37;;;13.80;99.90;;;;;;5056704;28;20223;-73
2022/10/23 00:40:38;;;;;;;3.87;2.30;;;13.80;99.90;;;;;;5059889;28;20222;-72
2022/10/23 00:43:06;;;;;;;2.87;2.00;;;13.70;99.90;;;;;;5059633;28;20212;-72
2022/10/23 00:45:32;;;;;;;4.23;2.27;;;13.70;99.90;;;;;;5044750;28;20995;-72
2022/10/23 00:48:00;;;;;;;4.27;2.60;;;13.70;99.90;;;;;;5054755;28;20541;-73
2022/10/23 00:50:29;;;;;;;4.17;2.23;;;13.70;99.90;;;;;;5054086;28;20510;-73
2022/10/23 00:52:58;;;;;;;4.63;2.00;;;13.70;99.90;;;;;;5046180;28;20456;-72
2022/10/23 00:55:25;;;;;;;3.37;2.77;;;13.70;99.90;;;;;;5056203;28;20470;-73
2022/10/23 00:57:52;;;;;;;2.57;1.90;;;13.70;99.90;;;;;;5051678;28;20460;-72
2022/10/23 01:00:28;;;;;;;4.30;2.47;;;13.70;99.90;;;;;;5037224;28;20544;-73
2022/10/23 01:02:55;;;;;;;4.50;2.80;;;13.60;99.90;;;;;;5053374;28;20461;-72
2022/10/23 01:05:29;;;;;;;5.43;2.53;;;13.60;99.90;;;;;;5058737;28;20554;-73
2022/10/23 01:08:06;;;;;;;8.20;2.70;;;13.60;99.90;;;;;;5043936;28;20495;-72
2022/10/23 01:10:41;;;;;;;2.87;2.40;;;13.60;99.90;;;;;;5056609;28;20473;-73
2022/10/23 01:13:20;;;;;;;4.77;2.40;;;13.60;99.90;;;;;;5038587;28;20618;-71
2022/10/23 01:16:00;;;;;;;5.33;3.20;;;13.60;99.90;;;;;;5044086;28;20831;-72
2022/10/23 01:18:48;;;;;;;2.83;2.50;;;13.60;99.90;;;;;;5059542;28;20461;-72
2022/10/23 01:21:26;;;;;;;4.10;2.83;;;13.50;99.90;;;;;;5052828;28;20524;-72
2022/10/23 01:24:10;;;;;;;4.13;2.67;;;13.50;99.90;;;;;;5040996;28;22038;-72
2022/10/23 01:26:51;;;;;;;3.00;2.30;;;13.50;99.90;;;;;;5056696;28;20482;-72
2022/10/23 01:29:30;;;;;;;5.73;2.50;;;13.50;99.90;;;;;;5044049;28;20520;-71
2022/10/23 01:32:23;;;;;;;3.73;2.40;;;13.40;99.90;;;;;;5070500;28;20557;-72
2022/10/23 01:35:02;;;;;;;4.17;2.67;;;13.40;99.90;;;;;;5051246;28;20531;-72
2022/10/23 01:37:53;;;;;;;3.97;2.40;;;13.40;99.90;;;;;;5051615;28;20466;-73
2022/10/23 01:40:30;;;;;;;3.90;2.47;;;13.40;99.90;;;;;;5054041;28;20454;-72
2022/10/23 01:43:03;;;;;;;5.30;3.40;;;13.40;99.90;;;;;;5053682;28;20801;-72
2022/10/23 01:45:37;;;;;;;2.67;2.30;;;13.40;99.90;;;;;;5054014;28;20470;-72
2022/10/23 01:48:07;;;;;;;4.20;2.90;;;13.30;99.90;;;;;;5054538;28;20537;-72
2022/10/23 01:50:36;;;;;;;4.30;3.07;;;13.30;99.90;;;;;;5052193;28;20531;-72
2022/10/23 01:53:03;;;;;;;4.57;2.63;;;13.30;99.90;;;;;;5054191;28;20552;-72
2022/10/23 01:55:31;;;;;;;3.57;2.87;;;13.30;99.90;;;;;;5061444;28;20458;-72
2022/10/23 01:58:01;;;;;;;3.70;3.30;;;13.30;99.90;;;;;;5053585;28;20476;-73
2022/10/23 02:00:37;;;;;;;4.10;2.97;;;13.30;99.90;;;;;;5037386;28;20466;-73
2022/10/23 02:03:05;;;;;;;5.70;3.70;;;13.30;99.90;;;;;;5049146;28;20469;-73
2022/10/23 02:05:33;;;;;;;15.13;4.10;;;13.30;99.90;;;;;;5043066;28;20457;-72
2022/10/23 02:08:01;;;;;;;4.30;3.27;;;13.30;99.90;;;;;;5066322;28;20546;-72
2022/10/23 02:10:40;;;;;;;5.40;3.60;;;13.30;99.90;;;;;;5050037;28;20473;-72
2022/10/23 02:13:10;;;;;;;8.50;3.93;;;13.20;99.90;;;;;;5063177;28;20453;-72
2022/10/23 02:15:49;;;;;;;5.60;4.00;;;13.20;99.90;;;;;;5070050;28;21023;-72
2022/10/23 02:18:33;;;;;;;6.20;4.33;;;13.20;99.90;;;;;;5065421;28;20461;-69
2022/10/23 02:21:16;;;;;;;4.43;4.03;;;13.20;99.90;;;;;;5049018;28;20453;-72
2022/10/23 02:23:55;;;;;;;6.80;4.80;;;13.20;99.90;;;;;;5035195;28;20465;-72
2022/10/23 02:26:32;;;;;;;4.43;4.00;;;13.10;99.90;;;;;;5063258;28;20466;-72
2022/10/23 02:29:14;;;;;;;5.30;4.80;;;13.10;99.90;;;;;;5058177;28;20982;-71
2022/10/23 02:31:42;;;;;;;6.40;4.43;;;13.00;99.90;;;;;;5062441;28;20552;-72
2022/10/23 02:34:08;;;;;;;12.13;5.30;;;13.00;99.90;;;;;;5048921;28;20461;-72
2022/10/23 02:36:34;;;;;;;8.17;5.60;;;13.10;99.90;;;;;;5038163;28;20460;-72
2022/10/23 02:39:01;;;;;;;7.77;5.70;;;13.10;99.90;;;;;;5065346;28;20222;-71
2022/10/23 02:41:38;;;;;;;5.73;4.60;;;13.10;99.90;;;;;;5065585;28;20979;-72
2022/10/23 02:44:12;;;;;;;7.07;5.17;;;13.10;99.90;;;;;;5048865;28;20579;-72
2022/10/23 02:46:57;;;;;;;7.17;5.30;;;13.00;99.90;;;;;;5048607;28;20483;-72
2022/10/23 02:49:31;;;;;;;6.10;5.37;;;12.90;99.90;;;;;;5048668;28;20494;-72
2022/10/23 02:52:32;;;;;;;7.47;5.30;;;13.00;99.90;;;;;;5044778;28;20466;-73
2022/10/23 02:55:15;;;;;;;14.93;6.07;;;12.90;99.90;;;;;;5020709;28;20974;-71
2022/10/23 02:57:59;;;;;;;11.40;5.33;;;12.90;99.90;;;;;;5034058;28;20458;-71
2022/10/23 03:00:29;;;;;;;8.23;6.40;;;12.90;99.90;;;;;;5044518;28;20454;-71
2022/10/23 03:03:12;;;;;;;9.43;6.43;;;12.90;99.90;;;;;;5041650;28;20445;-72
2022/10/23 03:05:40;;;;;;;7.73;5.93;;;12.90;99.90;;;;;;5052232;28;20971;-72
2022/10/23 03:08:11;;;;;;;8.67;5.70;;;12.90;99.90;;;;;;5062562;28;20446;-71
2022/10/23 03:10:36;;;;;;;9.27;6.10;;;13.00;99.90;;;;;;5078988;28;20478;-71
2022/10/23 03:13:03;;;;;;;11.27;6.80;;;13.00;99.90;;;;;;5065118;28;20539;-73
2022/10/23 03:15:36;;;;;;;11.60;6.70;;;12.90;99.90;;;;;;5047555;28;20869;-72
2022/10/23 03:18:02;;;;;;;11.80;6.90;;;12.90;99.90;;;;;;5046893;28;20541;-73
2022/10/23 03:20:28;;;;;;;7.70;6.50;;;12.90;99.90;;;;;;5052503;28;20688;-72
2022/10/23 03:22:54;;;;;;;8.10;6.27;;;12.90;99.90;;;;;;5058460;28;20226;-73
2022/10/23 03:25:19;;;;;;;9.77;6.30;;;12.90;99.90;;;;;;5064751;28;20239;-73
2022/10/23 03:27:45;;;;;;;8.27;6.10;;;12.90;99.90;;;;;;5063040;28;20259;-72
2022/10/23 03:30:14;;;;;;;9.57;6.07;;;12.90;99.90;;;;;;5055225;28;20234;-72
2022/10/23 03:32:40;;;;;;;14.60;6.47;;;12.90;99.90;;;;;;5044430;28;20900;-71
2022/10/23 03:35:06;;;;;;;9.67;7.10;;;12.90;99.90;;;;;;5044983;28;20230;-71
2022/10/23 03:37:31;;;;;;;14.23;6.47;;;12.90;99.90;;;;;;5047841;28;20216;-71
2022/10/23 03:39:57;;;;;;;9.03;6.47;;;12.80;99.90;;;;;;5028819;28;20450;-72
2022/10/23 03:42:23;;;;;;;9.93;6.93;;;12.80;99.90;;;;;;5044929;28;20230;-71
2022/10/23 03:44:49;;;;;;;12.97;7.60;;;12.80;99.90;;;;;;5055915;28;20227;-72
2022/10/23 03:47:14;;;;;;;8.40;7.33;;;12.80;99.90;;;;;;5047796;28;20223;-71
2022/10/23 03:49:40;;;;;;;9.70;6.67;;;12.80;99.90;;;;;;5064540;28;20227;-71
2022/10/23 03:52:07;;;;;;;9.87;6.73;;;12.80;99.90;;;;;;5044729;28;20821;-72
2022/10/23 03:54:33;;;;;;;9.40;7.40;;;12.80;99.90;;;;;;5043988;28;20211;-73
2022/10/23 03:56:59;;;;;;;8.90;6.13;;;12.70;99.90;;;;;;5045735;28;20445;-71
2022/10/23 03:59:25;;;;;;;9.40;6.13;;;12.70;99.90;;;;;;5059920;28;20442;-71
2022/10/23 04:01:51;;;;;;;9.90;6.47;;;12.60;99.90;;;;;;5042650;28;20464;-72
2022/10/23 04:04:17;;;;;;;10.53;5.77;;;12.60;99.90;;;;;;5059082;28;20446;-70
2022/10/23 04:06:43;;;;;;;7.37;5.77;;;12.70;99.90;;;;;;5038770;28;20286;-72
2022/10/23 04:09:09;;;;;;;8.97;6.37;;;12.60;99.90;;;;;;5045353;28;20214;-73
2022/10/23 04:11:35;;;;;;;8.60;5.93;;;12.60;99.90;;;;;;5047317;28;20482;-71
2022/10/23 04:14:00;;;;;;;6.87;5.27;;;12.60;99.90;;;;;;5045972;28;20220;-72
2022/10/23 04:16:26;;;;;;;8.60;5.83;;;12.60;99.90;;;;;;5046426;28;20963;-72
2022/10/23 04:18:52;;;;;;;11.67;4.87;;;12.60;99.90;;;;;;5043705;28;20219;-73
2022/10/23 04:21:18;;;;;;;6.57;4.90;;;12.50;99.90;;;;;;5042967;28;20212;-72
2022/10/23 04:23:44;;;;;;;7.57;6.03;;;12.60;99.90;;;;;;5040737;28;20793;-72
2022/10/23 04:26:17;;;;;;;7.70;4.77;;;12.50;99.90;;;;;;5057858;28;20207;-73
2022/10/23 04:28:42;;;;;;;8.80;6.17;;;12.50;99.90;;;;;;5059119;28;20473;-72
2022/10/23 04:31:09;;;;;;;9.97;5.37;;;12.50;99.90;;;;;;5057638;28;20219;-71
2022/10/23 04:33:38;;;;;;;7.73;5.70;;;12.50;99.90;;;;;;5058434;28;20996;-73
2022/10/23 04:36:04;;;;;;;6.97;5.30;;;12.50;99.90;;;;;;5059661;28;20462;-72
2022/10/23 04:38:31;;;;;;;9.13;5.60;;;12.50;99.90;;;;;;5057641;28;20223;-72
2022/10/23 04:40:57;;;;;;;7.50;5.43;;;12.50;99.90;;;;;;5065360;28;20489;-72
2022/10/23 04:43:23;;;;;;;14.00;5.70;;;12.50;99.90;;;;;;5042816;28;20687;-71
2022/10/23 04:45:49;;;;;;;8.17;5.13;;;12.40;99.90;;;;;;5055030;28;20215;-72
2022/10/23 04:48:14;;;;;;;8.73;5.60;;;12.40;99.90;;;;;;5042351;28;20307;-73
2022/10/23 04:51:06;;;;;;;6.50;5.00;;;12.40;99.90;;;;;;5045903;28;20472;-72
2022/10/23 04:53:50;;;;;;;7.93;5.40;;;12.40;99.90;;;;;;5056264;28;21133;-72
2022/10/23 04:56:29;;;;;;;6.23;5.10;;;12.50;99.90;;;;;;5062183;28;20454;-73
2022/10/23 04:59:01;;;;;;;10.00;6.00;;;12.40;99.90;;;;;;5056888;28;20461;-72
2022/10/23 05:01:28;;;;;;;8.03;5.10;;;12.40;99.90;;;;;;5043621;28;20475;-72
2022/10/23 05:03:55;;;;;;;7.30;5.50;;;12.40;99.90;;;;;;5041850;28;20513;-70
2022/10/23 05:06:22;;;;;;;7.83;5.50;;;12.40;99.90;;;;;;5065753;28;20485;-72
2022/10/23 05:09:10;;;;;;;8.60;4.80;;;12.40;99.90;;;;;;5044862;28;20466;-72
2022/10/23 05:11:49;;;;;;;8.20;4.93;;;12.40;99.90;;;;;;5057965;28;21065;-72
2022/10/23 05:14:15;;;;;;;6.03;4.40;;;12.40;99.90;;;;;;5058682;28;20488;-72
2022/10/23 05:17:06;;;;;;;7.60;5.10;;;12.40;99.90;;;;;;5057114;28;20219;-71
2022/10/23 05:19:38;;;;;;;6.67;4.80;;;12.40;99.90;;;;;;5059539;28;20215;-72
2022/10/23 05:22:04;;;;;;;6.37;4.40;;;12.40;99.90;;;;;;5055301;28;20453;-71
2022/10/23 05:24:45;;;;;;;8.17;4.40;;;12.40;99.90;;;;;;5054913;28;20842;-71
2022/10/23 05:27:11;;;;;;;6.23;5.10;;;12.40;99.90;;;;;;5059364;28;20465;-71
2022/10/23 05:29:38;;;;;;;6.10;4.27;;;12.40;99.90;;;;;;5056613;28;20996;-72
2022/10/23 05:32:08;;;;;;;13.07;4.70;;;12.40;99.90;;;;;;5061223;28;20469;-72
2022/10/23 05:34:37;;;;;;;4.67;4.17;;;12.40;99.90;;;;;;5041877;28;20272;-73
2022/10/23 05:37:06;;;;;;;5.87;4.67;;;12.40;99.90;;;;;;5061259;28;20474;-72
2022/10/23 05:39:35;;;;;;;7.93;4.97;;;12.30;99.90;;;;;;5040905;28;20493;-72
2022/10/23 05:42:05;;;;;;;5.40;4.53;;;12.40;99.90;;;;;;5044976;28;20454;-72
2022/10/23 05:44:30;;;;;;;7.40;4.30;;;12.30;99.90;;;;;;5046223;28;20484;-71
2022/10/23 05:47:07;;;;;;;6.10;5.10;;;12.30;99.90;;;;;;5061346;28;20675;-72
2022/10/23 05:49:53;;;;;;;6.83;5.03;;;12.30;99.90;;;;;;5061147;28;20459;-73
2022/10/23 05:52:51;;;;;;;9.37;6.10;;;12.30;99.90;;;;;;5042078;28;20461;-71
2022/10/23 05:55:35;;;;;;;12.13;6.03;;;12.30;99.90;;;;;;5056778;28;20461;-72
2022/10/23 05:58:30;;;;;;;8.40;6.40;;;12.30;99.90;;;;;;5055800;28;20514;-72
2022/10/23 06:01:08;;;;;;;9.47;7.57;;;12.20;99.90;;;;;;5056318;28;20536;-72
2022/10/23 06:04:04;;;;;;;7.27;5.57;;;12.20;99.90;;;;;;5050676;28;20453;-72
2022/10/23 06:06:59;;;;;;;11.93;6.23;;;12.20;99.90;;;;;;5023553;28;20553;-71
2022/10/23 06:09:24;;;;;;;6.23;5.57;;;12.20;99.90;;;;;;5057976;28;20478;-72
2022/10/23 06:11:55;;;;;;;6.97;5.20;;;12.20;99.90;;;;;;5054039;28;20239;-71
2022/10/23 06:14:21;;;;;;;5.97;5.17;;;12.20;99.90;;;;;;5044595;28;20462;-72
2022/10/23 06:16:49;;;;;;;9.93;5.97;;;12.20;99.90;;;;;;5052813;28;20458;-71
2022/10/23 06:19:16;;;;;;;7.37;5.70;;;12.20;99.90;;;;;;5046092;28;20461;-72
2022/10/23 06:21:42;;;;;;;7.90;7.13;;;12.20;99.90;;;;;;5057995;28;20527;-72
2022/10/23 06:24:10;;;;;;;8.90;6.33;;;12.20;99.90;;;;;;5059454;28;21005;-73
2022/10/23 06:26:41;;;;;;;15.83;6.87;;;12.20;99.90;;;;;;5051586;28;20996;-73
2022/10/23 06:29:15;;;;;;;14.03;6.30;;;12.10;99.90;;;;;;5046698;28;20500;-72
2022/10/23 06:31:42;;;;;;;9.07;7.10;;;12.00;99.90;;;;;;5038458;28;20465;-73
2022/10/23 06:34:09;;;;;;;13.00;9.10;;;12.10;99.90;;;;;;5054804;28;20464;-72
2022/10/23 06:36:36;;;;;;;15.03;8.80;;;12.10;99.90;;;;;;5038309;28;20226;-72
2022/10/23 06:39:25;;;;;;;11.20;6.60;;;12.00;99.90;;;;;;5059191;28;20521;-72
2022/10/23 06:42:05;;;;;;;9.77;6.93;;;12.10;99.90;;;;;;5040379;28;21007;-72
2022/10/23 06:44:49;;;;;;;8.13;6.30;;;12.00;99.90;;;;;;5057425;28;20461;-72
2022/10/23 06:47:25;;;;;;;7.40;5.57;;;12.00;99.90;;;;;;5053861;28;20466;-72
2022/10/23 06:50:09;;;;;;;8.90;5.57;;;12.00;99.90;;;;;;5058202;28;20504;-72
2022/10/23 06:52:35;;;;;;;11.70;5.37;;;12.00;99.90;;;;;;5054998;28;20966;-72
2022/10/23 06:55:02;;;;;;;15.80;5.60;;;12.00;99.90;;;;;;5059138;28;20727;-71
2022/10/23 06:57:33;;;;;;;10.27;5.73;;;12.00;99.90;;;;;;5054584;28;20977;-73
2022/10/23 06:59:58;;;;;;;10.33;5.50;;;12.00;99.90;;;;;;5056289;28;20457;-72
2022/10/23 07:02:24;;;;;;;6.47;4.23;;;12.00;99.90;;;;;;5043537;28;20507;-71
2022/10/23 07:04:51;;;;;;;8.53;5.17;;;12.00;99.90;;;;;;5046624;28;20465;-72
2022/10/23 07:07:18;;;;;;;6.70;4.90;;;12.00;99.90;;;;;;5056022;28;20511;-71
2022/10/23 07:09:46;;;;;;;5.73;4.97;;;12.00;99.90;;;;;;5057182;28;20520;-73
2022/10/23 07:12:22;;;;;;;7.30;5.00;;;12.00;99.90;;;;;;5042960;28;20465;-72
2022/10/23 07:14:54;;;;;;;7.10;4.40;;;12.00;99.90;;;;;;5056151;28;20446;-72
2022/10/23 07:17:20;;;;;;;5.13;4.40;;;12.00;99.90;;;;;;5043702;28;20969;-72
2022/10/23 07:19:46;;;;;;;7.13;4.20;;;12.00;99.90;;;;;;5055371;28;20454;-71
2022/10/23 07:22:14;;;;;;;5.63;3.90;;;12.10;99.90;;;;;;5052522;28;20314;-72
2022/10/23 07:24:57;;;;;;;5.13;4.60;;;12.10;99.90;;;;;;5051912;28;20468;-71
2022/10/23 07:27:37;;;;;;;7.40;6.30;;;12.10;99.90;;;;;;5056321;28;20522;-72
2022/10/23 07:30:03;;;;;;;7.07;5.63;;;12.10;99.90;;;;;;5055891;28;20458;-72
2022/10/23 07:32:34;;;;;;;9.30;5.20;;;12.10;99.90;;;;;;5054048;28;20461;-73
2022/10/23 07:35:19;;;;;;;7.30;5.30;;;12.10;99.90;;;;;;5059047;28;20548;-72
2022/10/23 07:37:58;;;;;;;10.20;5.93;;;12.20;99.90;;;;;;5045115;28;20450;-73
2022/10/23 07:40:23;;;;;;;12.37;6.33;;;12.20;99.90;;;;;;5063423;28;20484;-70
2022/10/23 07:42:52;;;;;;;7.83;5.70;;;12.20;99.90;;;;;;5061571;28;20452;-72
2022/10/23 07:45:18;;;;;;;10.10;6.40;;;12.20;99.90;;;;;;5046821;28;20460;-72
2022/10/23 07:47:50;;;;;;;7.30;5.53;;;12.20;99.90;;;;;;5043580;28;20224;-73
2022/10/23 07:50:17;;;;;;;7.07;5.20;;;12.20;99.90;;;;;;5045750;28;20461;-72
2022/10/23 07:52:43;;;;;;;9.53;7.73;;;12.30;99.90;;;;;;5037445;28;20541;-71
2022/10/23 07:55:11;;;;;;;9.50;5.37;;;12.30;99.90;;;;;;5063692;28;20886;-72
2022/10/23 07:57:42;;;;;;;6.70;5.57;;;12.30;99.90;;;;;;5062236;28;20560;-72
2022/10/23 08:00:23;;;;;;;6.07;5.27;;;12.30;99.90;;;;;;5063086;28;20449;-72
2022/10/23 08:02:57;;;;;;;6.23;5.33;;;12.30;99.90;;;;;;5058872;28;20457;-71
2022/10/23 08:05:23;;;;;;;6.10;3.87;;;12.40;99.90;;;;;;5057792;28;20449;-72
2022/10/23 08:07:55;;;;;;;7.63;4.07;;;12.40;99.90;;;;;;5043828;28;20820;-72
2022/10/23 08:10:21;;;;;;;6.73;4.20;;;12.40;99.90;;;;;;5045283;28;20565;-71
2022/10/23 08:12:47;;;;;;;4.83;4.30;;;12.50;99.90;;;;;;5045599;28;20549;-72
2022/10/23 08:15:13;;;;;;;6.07;4.10;;;12.50;99.90;;;;;;5064129;28;20237;-72
2022/10/23 08:17:50;;;;;;;5.73;3.70;;;12.50;99.90;;;;;;5047221;28;20469;-71
2022/10/23 08:20:21;;;;;;;6.20;3.23;;;12.50;99.90;;;;;;5065316;28;20461;-72
2022/10/23 08:22:47;;;;;;;5.70;4.03;;;12.60;99.90;;;;;;5037403;28;20461;-72
2022/10/23 08:25:18;;;;;;;6.03;4.93;;;12.60;99.90;;;;;;5061918;28;20453;-72
2022/10/23 08:27:44;;;;;;;8.30;5.33;;;12.60;99.90;;;;;;5062153;28;20823;-73
2022/10/23 08:30:10;;;;;;;5.30;4.10;;;12.60;99.90;;;;;;5056763;28;20258;-72
2022/10/23 08:32:36;;;;;;;6.77;4.40;;;12.60;99.90;;;;;;5045201;28;20243;-71
2022/10/23 08:35:02;;;;;;;8.10;5.00;;;12.60;99.90;;;;;;5047735;28;20522;-72
2022/10/23 08:37:30;;;;;;;6.83;4.40;;;12.70;99.90;;;;;;5055814;28;20449;-71
2022/10/23 08:39:56;;;;;;;6.00;3.80;;;12.70;99.90;;;;;;5053548;28;20454;-72
2022/10/23 08:42:42;;;;;;;6.07;3.60;;;12.70;99.90;;;;;;5064882;28;20464;-72
2022/10/23 08:45:11;;;;;;;4.77;4.13;;;12.80;99.90;;;;;;5051890;28;20445;-72
2022/10/23 08:47:43;;;;;;;4.30;3.83;;;12.80;99.90;;;;;;5048698;28;20869;-72
2022/10/23 08:50:42;;;;;;;3.50;3.20;;;12.80;99.90;;;;;;5050424;28;20934;-72
2022/10/23 08:53:50;;;;;;;5.60;3.93;;;12.80;99.90;;;;;;5051511;28;20453;-72
2022/10/23 08:56:38;;;;;;;5.90;4.00;;;12.80;99.90;;;;;;5005550;28;20458;-72
2022/10/23 08:59:25;;;;;;;5.17;3.80;;;12.90;99.90;;;;;;5058711;28;20511;-73
2022/10/23 09:02:15;;;;;;;5.73;3.10;;;12.90;99.90;;;;;;5061685;28;20456;-72
2022/10/23 09:04:44;;;;;;;7.07;3.60;;;13.00;99.90;;;;;;5060890;28;20533;-72
2022/10/23 09:07:37;;;;;;;3.73;3.43;;;13.00;99.90;;;;;;5060049;28;20469;-72
2022/10/23 09:10:20;;;;;;;4.03;3.40;;;13.00;99.90;;;;;;5059532;28;20457;-73
2022/10/23 09:12:47;;;;;;;4.50;3.10;;;13.10;99.90;;;;;;5036631;28;20820;-72
2022/10/23 09:15:18;;;;;;;3.33;3.03;;;13.10;99.90;;;;;;5063688;28;20842;-72
2022/10/23 09:17:45;;;;;;;3.83;3.10;;;13.10;99.90;;;;;;5047942;28;20874;-72
2022/10/23 09:20:47;;;;;;;3.70;3.27;;;13.10;99.90;;;;;;5066581;28;20838;-72
2022/10/23 09:23:15;;;;;;;3.47;3.17;;;13.10;99.90;;;;;;5004860;28;20463;-73
2022/10/23 09:25:41;;;;;;;4.23;3.07;;;13.20;99.90;;;;;;5050560;28;20815;-72
2022/10/23 09:28:19;;;;;;;4.20;3.70;;;13.20;99.90;;;;;;5061519;28;20622;-72
2022/10/23 09:30:46;;;;;;;4.40;3.80;;;13.20;99.90;;;;;;5042959;28;20504;-72
2022/10/23 09:33:16;;;;;;;9.73;3.60;;;13.20;99.90;;;;;;5061261;28;20462;-73
2022/10/23 09:35:57;;;;;;;5.50;4.37;;;13.30;99.90;;;;;;5044316;28;20597;-72
2022/10/23 09:38:32;;;;;;;5.20;4.00;;;13.30;99.90;;;;;;5062673;28;20993;-72
2022/10/23 09:41:02;;;;;;;5.80;4.03;;;13.30;99.90;;;;;;5046716;28;20811;-72
2022/10/23 09:43:28;;;;;;;5.00;4.20;;;13.40;99.90;;;;;;5053995;28;20517;-71
2022/10/23 09:46:03;;;;;;;3.53;3.17;;;13.40;99.90;;;;;;5047764;28;20449;-71
2022/10/23 09:48:29;;;;;;;6.70;3.77;;;13.50;99.90;;;;;;5057727;28;21107;-70
2022/10/23 09:51:01;;;;;;;5.60;3.70;;;13.50;99.90;;;;;;5064945;28;20558;-71
2022/10/23 09:53:32;;;;;;;7.73;4.03;;;13.60;99.90;;;;;;5065276;28;20469;-71
2022/10/23 09:56:06;;;;;;;4.83;3.47;;;13.60;99.90;;;;;;5055343;28;20511;-70
2022/10/23 09:58:51;;;;;;;5.13;4.00;;;13.70;99.90;;;;;;5066073;28;20449;-72
2022/10/23 10:01:25;;;;;;;5.53;4.10;;;13.70;99.90;;;;;;5048310;28;20907;-70
2022/10/23 10:03:54;;;;;;;6.40;3.90;;;13.70;99.90;;;;;;5057095;28;20453;-70
2022/10/23 10:06:29;;;;;;;6.10;4.37;;;13.70;99.90;;;;;;5064716;28;20556;-72
2022/10/23 10:08:58;;;;;;;4.30;3.90;;;13.80;99.90;;;;;;5058465;28;20457;-70
2022/10/23 10:11:23;;;;;;;8.77;3.47;;;13.80;99.90;;;;;;5039048;28;20470;-71
2022/10/23 10:14:02;;;;;;;6.00;4.33;;;13.80;99.90;;;;;;5062802;28;20461;-71
2022/10/23 10:16:41;;;;;;;10.73;4.37;;;13.80;99.90;;;;;;5059126;28;20227;-71
2022/10/23 10:19:25;;;;;;;5.93;4.60;;;13.90;99.90;;;;;;5063470;28;20457;-71
2022/10/23 10:22:00;;;;;;;15.20;10.17;;;13.90;99.90;;;;;;5058568;28;20510;-73
2022/10/23 10:24:28;;;;;;;18.33;15.87;;;13.90;99.90;;;;;;5065506;28;20463;-73
2022/10/23 10:27:21;;;;;;;17.93;12.90;;;13.90;99.90;;;;;;5069348;28;21076;-73
2022/10/23 10:30:09;;;;;;;11.00;8.40;;;13.90;99.90;;;;;;5061295;28;20461;-72
2022/10/23 10:32:46;;;;;;;14.87;7.40;;;14.00;99.90;;;;;;5048641;28;20462;-72
2022/10/23 10:35:15;;;;;;;9.17;6.50;;;14.00;99.90;;;;;;5058413;28;20450;-72
2022/10/23 10:38:20;;;;;;;11.63;5.00;;;14.00;99.90;;;;;;5043772;28;20450;-72
2022/10/23 10:41:23;;;;;;;9.03;6.67;;;14.10;99.90;;;;;;5037880;28;20498;-72
2022/10/23 10:44:00;;;;;;;12.30;10.60;;;14.10;99.90;;;;;;5045355;28;20461;-72
2022/10/23 10:46:37;;;;;;;11.40;10.30;;;14.10;99.90;;;;;;5043689;28;20457;-71
2022/10/23 10:49:12;;;;;;;13.27;12.07;;;14.10;99.90;;;;;;5060925;28;20445;-72
2022/10/23 10:52:22;;;;;;;16.77;15.00;;;14.10;99.90;;;;;;5049567;28;20466;-73
2022/10/23 10:55:04;;;;;;;19.70;17.80;;;14.20;99.90;;;;;;5061053;28;20855;-70
2022/10/23 10:57:44;;;;;;;14.37;13.27;;;14.20;99.90;;;;;;5044830;28;20464;-71
2022/10/23 11:00:15;;;;;;;9.50;8.53;;;14.20;99.90;;;;;;5064097;28;20928;-71
2022/10/23 11:02:48;;;;;;;8.17;7.37;;;14.30;99.90;;;;;;5037357;28;20472;-72
2022/10/23 11:05:20;;;;;;;7.10;5.50;;;14.30;99.90;;;;;;5061016;28;20500;-71
2022/10/23 11:07:57;;;;;;;11.00;6.20;;;14.30;99.90;;;;;;5058072;28;20458;-71
2022/10/23 11:10:23;;;;;;;7.97;5.80;;;14.40;99.90;;;;;;5045161;28;20477;-71
2022/10/23 11:12:50;;;;;;;4.97;4.47;;;14.40;99.90;;;;;;5060779;28;20977;-71
2022/10/23 11:15:25;;;;;;;5.97;5.20;;;14.40;99.90;;;;;;5058133;28;20219;-72
2022/10/23 11:17:57;;;;;;;5.00;4.50;;;14.40;99.90;;;;;;5057718;28;20453;-71
2022/10/23 11:20:25;;;;;;;6.53;4.87;;;14.40;99.90;;;;;;5057691;28;21046;-69
2022/10/23 11:23:00;;;;;;;6.83;4.20;;;14.50;99.90;;;;;;5058148;28;20458;-72
2022/10/23 11:25:57;;;;;;;5.73;5.07;;;14.50;99.90;;;;;;5052498;28;20559;-71
2022/10/23 11:28:50;;;;;;;7.90;4.70;;;14.50;99.90;;;;;;5038892;28;20605;-71
2022/10/23 11:31:34;;;;;;;5.67;4.80;;;14.60;99.90;;;;;;5056146;28;20824;-72
2022/10/23 11:34:20;;;;;;;5.57;5.07;;;14.60;99.90;;;;;;5056784;28;21009;-71
2022/10/23 11:36:53;;;;;;;5.43;4.63;;;14.70;99.90;;;;;;5030067;28;20978;-71
2022/10/23 11:39:20;;;;;;;6.00;5.17;;;14.80;99.90;;;;;;5056171;28;20470;-73
2022/10/23 11:41:50;;;;;;;10.37;4.93;;;14.90;99.90;;;;;;5036897;28;20882;-71
2022/10/23 11:44:48;;;;;;;6.10;4.37;;;15.00;99.90;;;;;;5033644;28;20462;-71
2022/10/23 11:47:37;;;;;;;7.60;4.30;;;15.10;99.90;;;;;;5056662;28;20475;-73
2022/10/23 11:50:06;;;;;;;8.03;4.93;;;15.30;99.90;;;;;;5056503;28;20459;-74
2022/10/23 11:52:34;;;;;;;5.43;4.37;;;15.40;99.90;;;;;;5053957;28;20457;-73
2022/10/23 11:55:01;;;;;;;4.40;4.00;;;15.50;99.90;;;;;;5060597;28;20442;-72
2022/10/23 11:57:26;;;;;;;5.20;3.83;;;15.50;99.90;;;;;;5039091;28;20462;-73
2022/10/23 11:59:54;;;;;;;4.50;3.87;;;15.50;99.90;;;;;;5062080;28;20517;-72
2022/10/23 12:02:36;;;;;;;4.97;4.10;;;15.60;99.90;;;;;;5041389;28;20229;-71
2022/10/23 12:05:25;;;;;;;4.80;3.50;;;15.70;99.90;;;;;;5066384;28;20453;-72
2022/10/23 12:08:00;;;;;;;4.60;3.50;;;15.80;99.90;;;;;;5059241;28;20522;-72
2022/10/23 12:10:28;;;;;;;6.70;3.37;;;15.90;99.90;;;;;;5064144;28;20469;-72
2022/10/23 12:12:57;;;;;;;4.53;4.00;;;16.00;99.90;;;;;;5046606;28;20796;-72
2022/10/23 12:15:24;;;;;;;4.30;3.90;;;16.10;99.90;;;;;;5064538;28;20482;-72
2022/10/23 12:17:53;;;;;;;5.20;4.70;;;16.10;99.90;;;;;;5038361;28;20462;-72
2022/10/23 12:20:35;;;;;;;5.90;4.77;;;16.20;99.90;;;;;;5058446;28;20486;-72
2022/10/23 12:23:24;;;;;;;5.47;4.50;;;16.20;99.90;;;;;;5062687;28;20835;-72
2022/10/23 12:26:11;;;;;;;4.27;3.73;;;16.30;99.90;;;;;;5055193;28;20502;-73
2022/10/23 12:28:57;;;;;;;5.60;3.80;;;16.40;99.90;;;;;;5059821;28;20554;-73
2022/10/23 12:31:48;;;;;;;7.03;4.63;;;16.50;99.90;;;;;;5056403;28;20536;-71
2022/10/23 12:34:52;;;;;;;7.37;4.83;;;16.50;99.90;;;;;;5052596;28;20457;-71
2022/10/23 12:37:55;;;;;;;5.23;4.20;;;16.50;99.90;;;;;;5003284;28;20474;-72
2022/10/23 12:40:26;;;;;;;5.03;4.50;;;16.50;99.90;;;;;;5003002;28;20839;-73
2022/10/23 12:42:54;;;;;;;9.33;4.07;;;16.60;99.90;;;;;;5041847;28;20627;-73
2022/10/23 12:45:31;;;;;;;6.30;4.70;;;16.60;99.90;;;;;;5043221;28;20461;-73
2022/10/23 12:47:58;;;;;;;7.00;5.00;;;16.60;99.90;;;;;;5027873;28;20820;-71
2022/10/23 12:50:27;;;;;;;7.37;5.00;;;16.60;99.90;;;;;;5041437;28;20474;-71
2022/10/23 12:52:57;;;;;;;6.90;5.23;;;16.70;99.90;;;;;;5053207;28;20211;-72
2022/10/23 12:55:25;;;;;;;5.80;4.70;;;16.70;99.90;;;;;;5056589;28;20449;-71
2022/10/23 12:57:52;;;;;;;5.60;4.50;;;16.80;99.90;;;;;;5049774;28;20989;-71
2022/10/23 13:00:20;;;;;;;10.03;5.13;;;16.90;99.90;;;;;;5064166;28;20472;-71
2022/10/23 13:03:00;;;;;;;7.00;4.57;;;17.00;99.90;;;;;;5044208;28;20447;-72
2022/10/23 13:05:26;;;;;;;25.37;5.30;;;17.00;99.90;;;;;;5045972;28;20525;-72
2022/10/23 13:07:53;;;;;;;7.00;4.50;;;17.10;99.90;;;;;;5060610;28;20450;-73
2022/10/23 13:10:27;;;;;;;6.53;5.50;;;17.10;99.90;;;;;;5060478;28;20609;-73
2022/10/23 13:13:01;;;;;;;7.27;5.87;;;17.10;99.90;;;;;;5040599;28;20817;-71
2022/10/23 13:15:38;;;;;;;7.97;5.47;;;17.10;99.90;;;;;;5068319;28;20458;-73
2022/10/23 13:18:05;;;;;;;5.50;5.00;;;17.00;99.90;;;;;;5065315;28;20518;-73